createdAt,value
2022-11-06T00:01:08.965Z,1.84
2022-11-06T00:03:38.349Z,1.83
2022-11-06T00:06:26.527Z,1.87
2022-11-06T00:09:02.725Z,1.95
2022-11-06T00:11:32.021Z,2.06
2022-11-06T00:14:03.110Z,2.15
2022-11-06T00:16:32.479Z,2.13
2022-11-06T00:19:01.983Z,2.12
2022-11-06T00:21:32.675Z,1.82
2022-11-06T00:24:07.369Z,1.65
2022-11-06T00:26:37.274Z,1.60
2022-11-06T00:29:07.353Z,1.69
2022-11-06T00:31:38.585Z,1.62
2022-11-06T00:34:08.641Z,1.60
2022-11-06T00:37:05.631Z,1.63
2022-11-06T00:39:36.121Z,1.55
2022-11-06T00:42:05.511Z,1.50
2022-11-06T00:44:34.617Z,1.53
2022-11-06T00:47:03.745Z,1.54
2022-11-06T00:49:32.963Z,1.52
2022-11-06T00:52:02.340Z,1.43
2022-11-06T00:54:31.974Z,1.36
2022-11-06T00:57:07.939Z,1.45
2022-11-06T00:59:41.399Z,1.34
2022-11-06T01:02:14.922Z,1.40
2022-11-06T01:04:44.414Z,1.36
2022-11-06T01:07:14.752Z,1.27
2022-11-06T01:09:43.991Z,1.25
2022-11-06T01:12:14.868Z,1.24
2022-11-06T01:14:45.373Z,1.11
2022-11-06T01:17:15.294Z,1.12
2022-11-06T01:19:44.482Z,1.12
2022-11-06T01:22:13.596Z,1.10
2022-11-06T01:24:43.111Z,1.13
2022-11-06T01:27:27.909Z,1.30
2022-11-06T01:29:58.699Z,1.48
2022-11-06T01:32:27.855Z,1.56
2022-11-06T01:34:56.950Z,1.46
2022-11-06T01:37:26.081Z,1.51
2022-11-06T01:39:55.279Z,1.53
2022-11-06T01:42:24.549Z,1.43
2022-11-06T01:45:32.807Z,1.38
2022-11-06T01:48:05.404Z,1.34
2022-11-06T01:50:34.889Z,1.37
2022-11-06T01:53:04.390Z,1.30
2022-11-06T01:55:40.830Z,1.31
2022-11-06T01:58:16.443Z,1.25
2022-11-06T02:00:47.904Z,1.24
2022-11-06T02:03:20.460Z,1.17
2022-11-06T02:05:49.914Z,1.15
2022-11-06T02:08:22.874Z,1.35
2022-11-06T02:10:52.743Z,1.29
2022-11-06T02:13:44.346Z,1.36
2022-11-06T02:16:28.782Z,1.27
2022-11-06T02:19:15.280Z,1.36
2022-11-06T02:22:24.598Z,1.59
2022-11-06T02:25:17.051Z,1.47
2022-11-06T02:27:52.976Z,1.44
2022-11-06T02:30:22.408Z,1.38
2022-11-06T02:32:58.944Z,1.47
2022-11-06T02:35:34.027Z,1.53
2022-11-06T02:38:09.110Z,1.38
2022-11-06T02:40:45.123Z,1.41
2022-11-06T02:43:18.149Z,1.41
2022-11-06T02:45:54.734Z,1.57
2022-11-06T02:48:31.791Z,1.65
2022-11-06T02:51:05.569Z,1.69
2022-11-06T02:53:34.733Z,1.66
2022-11-06T02:56:09.481Z,1.58
2022-11-06T02:58:49.066Z,1.64
2022-11-06T03:01:28.708Z,1.57
2022-11-06T03:04:03.979Z,1.79
2022-11-06T03:06:39.127Z,1.81
2022-11-06T03:09:13.558Z,2.04
2022-11-06T03:11:44.583Z,1.84
2022-11-06T03:14:22.448Z,1.91
2022-11-06T03:16:58.888Z,2.00
2022-11-06T03:19:32.263Z,2.03
2022-11-06T03:22:08.957Z,2.03
2022-11-06T03:24:48.177Z,1.99
2022-11-06T03:27:26.928Z,1.89
2022-11-06T03:30:04.116Z,1.82
2022-11-06T03:32:38.075Z,1.88
2022-11-06T03:35:14.310Z,1.97
2022-11-06T03:37:49.165Z,1.84
2022-11-06T03:40:23.280Z,1.80
2022-11-06T03:42:56.551Z,1.89
2022-11-06T03:45:29.004Z,1.90
2022-11-06T03:48:03.683Z,1.87
2022-11-06T03:50:38.932Z,1.95
2022-11-06T03:53:14.318Z,1.94
2022-11-06T03:55:48.143Z,1.94
2022-11-06T03:58:22.957Z,1.80
2022-11-06T04:00:56.058Z,1.93
2022-11-06T04:03:32.340Z,1.84
2022-11-06T04:06:08.543Z,1.86
2022-11-06T04:08:56.190Z,1.95
2022-11-06T04:11:48.264Z,1.80
2022-11-06T04:14:19.775Z,1.83
2022-11-06T04:16:54.846Z,1.78
2022-11-06T04:19:25.170Z,1.74
2022-11-06T04:22:14.834Z,1.72
2022-11-06T04:25:15.868Z,1.69
2022-11-06T04:28:20.675Z,1.84
2022-11-06T04:31:03.252Z,1.62
2022-11-06T04:33:45.421Z,1.71
2022-11-06T04:36:25.578Z,1.66
2022-11-06T04:39:06.035Z,1.64
2022-11-06T04:41:40.839Z,1.62
2022-11-06T04:44:16.238Z,1.55
2022-11-06T04:46:50.046Z,1.44
2022-11-06T04:49:22.482Z,1.44
2022-11-06T04:51:52.499Z,1.41
2022-11-06T04:54:22.175Z,1.41
2022-11-06T04:56:52.133Z,1.50
2022-11-06T04:59:21.283Z,1.41
2022-11-06T05:01:50.421Z,1.33
2022-11-06T05:04:21.502Z,1.37
2022-11-06T05:06:50.584Z,1.33
2022-11-06T05:09:19.739Z,1.37
2022-11-06T05:11:48.894Z,1.32
2022-11-06T05:14:18.125Z,1.20
2022-11-06T05:16:47.232Z,1.30
2022-11-06T05:19:16.378Z,1.19
2022-11-06T05:22:04.125Z,1.24
2022-11-06T05:24:33.023Z,1.32
2022-11-06T05:27:02.107Z,1.19
2022-11-06T05:29:31.212Z,1.14
2022-11-06T05:32:00.430Z,1.16
2022-11-06T05:34:29.530Z,1.21
2022-11-06T05:37:00.186Z,1.31
2022-11-06T05:39:29.395Z,1.23
2022-11-06T05:41:58.561Z,1.28
2022-11-06T05:44:27.875Z,1.29
2022-11-06T05:46:57.025Z,1.23
2022-11-06T05:49:26.187Z,1.24
2022-11-06T05:51:55.303Z,1.13
2022-11-06T05:54:26.018Z,1.18
2022-11-06T05:56:55.141Z,1.25
2022-11-06T05:59:26.517Z,1.14
2022-11-06T06:01:55.840Z,1.20
2022-11-06T06:04:25.033Z,1.30
2022-11-06T06:06:54.231Z,1.25
2022-11-06T06:09:23.427Z,1.24
2022-11-06T06:11:54.483Z,1.34
2022-11-06T06:14:23.901Z,1.31
2022-11-06T06:16:53.114Z,1.17
2022-11-06T06:19:22.459Z,1.31
2022-11-06T06:21:51.660Z,1.23
2022-11-06T06:24:20.849Z,1.10
2022-11-06T06:26:49.996Z,1.11
2022-11-06T06:29:20.490Z,1.23
2022-11-06T06:31:50.309Z,1.23
2022-11-06T06:34:19.686Z,1.21
2022-11-06T06:36:51.876Z,1.29
2022-11-06T06:39:22.101Z,1.42
2022-11-06T06:41:51.274Z,1.54
2022-11-06T06:44:22.587Z,1.40
2022-11-06T06:46:52.130Z,1.38
2022-11-06T06:49:21.407Z,1.50
2022-11-06T06:51:52.416Z,1.58
2022-11-06T06:54:21.659Z,1.54
2022-11-06T06:56:50.794Z,1.66
2022-11-06T06:59:21.486Z,1.61
2022-11-06T07:01:50.829Z,1.64
2022-11-06T07:04:20.302Z,1.65
2022-11-06T07:06:49.352Z,1.75
2022-11-06T07:09:18.443Z,1.96
2022-11-06T07:11:47.642Z,1.87
2022-11-06T07:14:17.177Z,1.91
2022-11-06T07:16:53.448Z,2.06
2022-11-06T07:19:22.945Z,2.20
2022-11-06T07:21:53.386Z,2.15
2022-11-06T07:24:22.531Z,2.24
2022-11-06T07:26:51.646Z,2.31
2022-11-06T07:29:20.906Z,2.37
2022-11-06T07:31:51.371Z,2.43
2022-11-06T07:34:20.570Z,2.46
2022-11-06T07:36:49.746Z,2.50
2022-11-06T07:39:19.237Z,2.60
2022-11-06T07:41:48.343Z,2.68
2022-11-06T07:44:17.520Z,2.67
2022-11-06T07:46:46.937Z,2.72
2022-11-06T07:49:17.575Z,2.94
2022-11-06T07:51:47.091Z,2.94
2022-11-06T07:54:16.462Z,2.95
2022-11-06T07:56:45.589Z,3.04
2022-11-06T07:59:14.819Z,3.17
2022-11-06T08:01:45.726Z,3.17
2022-11-06T08:04:15.143Z,3.09
2022-11-06T08:06:45.759Z,3.28
2022-11-06T08:09:14.993Z,3.29
2022-11-06T08:11:44.256Z,3.39
2022-11-06T08:14:13.636Z,3.42
2022-11-06T08:16:42.752Z,3.49
2022-11-06T08:19:12.120Z,3.55
2022-11-06T08:21:41.270Z,3.65
2022-11-06T08:24:15.340Z,3.76
2022-11-06T08:26:47.211Z,3.84
2022-11-06T08:29:16.609Z,3.93
2022-11-06T08:31:45.739Z,4.20
2022-11-06T08:34:14.978Z,4.37
2022-11-06T08:36:49.701Z,4.60
2022-11-06T08:39:20.628Z,4.81
2022-11-06T08:41:49.876Z,5.07
2022-11-06T08:44:19.201Z,5.31
2022-11-06T08:46:52.167Z,5.65
2022-11-06T08:49:21.478Z,5.91
2022-11-06T08:51:50.882Z,6.11
2022-11-06T08:54:21.579Z,6.32
2022-11-06T08:56:50.874Z,6.41
2022-11-06T08:59:20.110Z,6.56
2022-11-06T09:01:49.364Z,6.74
2022-11-06T09:04:19.829Z,7.00
2022-11-06T09:06:49.236Z,7.09
2022-11-06T09:09:18.467Z,7.09
2022-11-06T09:11:48.954Z,7.16
2022-11-06T09:14:19.391Z,7.32
2022-11-06T09:16:48.611Z,7.26
2022-11-06T09:19:18.003Z,7.35
2022-11-06T09:21:53.485Z,7.57
2022-11-06T09:24:43.121Z,7.67
2022-11-06T09:27:14.543Z,7.76
2022-11-06T09:29:44.620Z,7.96
2022-11-06T09:32:13.777Z,8.23
2022-11-06T09:34:42.875Z,8.66
2022-11-06T09:37:12.214Z,8.92
2022-11-06T09:39:41.284Z,8.98
2022-11-06T09:42:23.163Z,9.07
2022-11-06T09:45:04.742Z,9.31
2022-11-06T09:47:38.879Z,9.44
2022-11-06T09:50:16.531Z,9.64
2022-11-06T09:52:51.406Z,9.71
2022-11-06T09:55:23.703Z,9.85
2022-11-06T09:57:58.911Z,9.90
2022-11-06T10:00:28.218Z,10.00
2022-11-06T10:03:05.082Z,10.08
2022-11-06T10:05:36.287Z,10.24
2022-11-06T10:08:15.306Z,10.44
2022-11-06T10:10:55.874Z,10.56
2022-11-06T10:13:45.004Z,10.76
2022-11-06T10:16:26.291Z,10.91
2022-11-06T10:19:08.768Z,11.01
2022-11-06T10:21:49.657Z,11.06
2022-11-06T10:24:26.891Z,11.23
2022-11-06T10:26:58.313Z,11.52
2022-11-06T10:29:51.124Z,11.88
2022-11-06T10:33:05.299Z,12.27
2022-11-06T10:35:43.534Z,12.52
2022-11-06T10:38:16.218Z,12.77
2022-11-06T10:40:49.090Z,12.94
2022-11-06T10:43:31.718Z,13.30
2022-11-06T10:46:16.146Z,13.35
2022-11-06T10:48:50.989Z,13.17
2022-11-06T10:51:44.854Z,13.05
2022-11-06T10:54:29.711Z,13.17
2022-11-06T10:57:20.097Z,13.43
2022-11-06T10:59:50.043Z,13.61
2022-11-06T11:02:33.131Z,13.82
2022-11-06T11:05:04.200Z,14.00
2022-11-06T11:07:35.799Z,13.93
2022-11-06T11:10:29.155Z,14.03
2022-11-06T11:13:07.109Z,14.33
2022-11-06T11:15:46.271Z,14.48
2022-11-06T11:18:24.236Z,14.65
2022-11-06T11:21:07.892Z,14.84
2022-11-06T11:23:37.046Z,14.87
2022-11-06T11:26:24.775Z,15.08
2022-11-06T11:28:57.580Z,15.30
2022-11-06T11:31:34.632Z,15.31
2022-11-06T11:34:08.683Z,15.55
2022-11-06T11:36:55.803Z,15.61
2022-11-06T11:39:32.347Z,15.67
2022-11-06T11:42:30.397Z,15.68
2022-11-06T11:45:16.405Z,15.75
2022-11-06T11:47:48.107Z,16.66
2022-11-06T11:50:30.153Z,17.03
2022-11-06T11:53:10.272Z,17.80
2022-11-06T11:55:44.639Z,17.63
2022-11-06T11:58:22.887Z,17.31
2022-11-06T12:00:58.593Z,17.27
2022-11-06T12:03:35.237Z,16.83
2022-11-06T12:06:12.554Z,16.60
2022-11-06T12:08:46.724Z,16.07
2022-11-06T12:11:21.829Z,15.67
2022-11-06T12:14:33.263Z,15.76
2022-11-06T12:17:19.105Z,15.97
2022-11-06T12:19:53.400Z,17.37
2022-11-06T12:22:29.636Z,18.25
2022-11-06T12:25:04.327Z,17.97
2022-11-06T12:27:38.247Z,17.41
2022-11-06T12:30:13.230Z,17.07
2022-11-06T12:33:04.533Z,16.86
2022-11-06T12:35:41.651Z,16.68
2022-11-06T12:38:26.963Z,16.44
2022-11-06T12:41:01.248Z,16.72
2022-11-06T12:43:38.619Z,16.67
2022-11-06T12:46:20.323Z,16.55
2022-11-06T12:49:23.156Z,16.80
2022-11-06T12:52:10.285Z,16.78
2022-11-06T12:55:04.351Z,17.24
2022-11-06T12:57:47.363Z,17.83
2022-11-06T13:00:20.935Z,17.77
2022-11-06T13:03:20.973Z,18.38
2022-11-06T13:06:00.042Z,18.79
2022-11-06T13:08:40.562Z,18.95
2022-11-06T13:11:23.864Z,18.67
2022-11-06T13:14:19.018Z,18.65
2022-11-06T13:17:01.043Z,18.72
2022-11-06T13:19:38.655Z,19.15
2022-11-06T13:22:28.212Z,19.80
2022-11-06T13:25:06.642Z,20.86
2022-11-06T13:27:43.894Z,21.72
2022-11-06T13:30:18.555Z,22.01
2022-11-06T13:33:07.646Z,21.76
2022-11-06T13:35:41.107Z,21.74
2022-11-06T13:38:17.584Z,21.69
2022-11-06T13:40:53.779Z,22.06
2022-11-06T13:43:30.877Z,22.77
2022-11-06T13:46:10.020Z,24.67
2022-11-06T13:48:52.101Z,25.65
2022-11-06T13:51:32.762Z,26.68
2022-11-06T13:54:12.252Z,25.73
2022-11-06T13:57:14.709Z,25.66
2022-11-06T14:00:02.801Z,27.38
2022-11-06T14:03:25.890Z,29.62
2022-11-06T14:06:03.507Z,30.42
2022-11-06T14:08:40.543Z,31.06
2022-11-06T14:11:16.654Z,28.63
2022-11-06T14:14:01.688Z,25.55
2022-11-06T14:16:34.708Z,22.93
2022-11-06T14:19:11.665Z,20.78
2022-11-06T14:21:51.316Z,19.13
2022-11-06T14:24:42.043Z,17.74
2022-11-06T14:27:14.909Z,16.52
2022-11-06T14:30:07.893Z,15.48
2022-11-06T14:32:42.579Z,14.79
2022-11-06T14:35:53.007Z,14.29
2022-11-06T14:38:43.816Z,13.81
2022-11-06T14:41:59.243Z,13.48
2022-11-06T14:44:49.047Z,13.31
2022-11-06T14:47:42.169Z,13.23
2022-11-06T14:50:28.803Z,13.25
2022-11-06T14:53:02.575Z,13.22
2022-11-06T14:55:39.644Z,13.08
2022-11-06T14:58:20.887Z,12.93
2022-11-06T15:00:54.944Z,12.81
2022-11-06T15:03:32.011Z,12.74
2022-11-06T15:06:08.426Z,12.64
2022-11-06T15:09:03.146Z,12.52
2022-11-06T15:11:58.863Z,12.42
2022-11-06T15:14:58.103Z,12.23
2022-11-06T15:17:30.624Z,12.14
2022-11-06T15:20:22.134Z,12.01
2022-11-06T15:23:02.584Z,11.93
2022-11-06T15:25:32.988Z,11.81
2022-11-06T15:28:09.226Z,11.77
2022-11-06T15:30:50.120Z,11.69
2022-11-06T15:33:31.830Z,11.58
2022-11-06T15:36:10.462Z,11.54
2022-11-06T15:38:41.612Z,11.44
2022-11-06T15:41:17.668Z,11.40
2022-11-06T15:43:48.905Z,11.32
2022-11-06T15:46:23.900Z,11.23
2022-11-06T15:49:19.674Z,11.18
2022-11-06T15:51:56.968Z,11.12
2022-11-06T15:54:39.139Z,11.10
2022-11-06T15:57:19.833Z,10.99
2022-11-06T15:59:49.518Z,10.97
2022-11-06T16:02:22.606Z,10.94
2022-11-06T16:04:52.951Z,10.89
2022-11-06T16:07:23.766Z,10.86
2022-11-06T16:09:53.251Z,10.76
2022-11-06T16:12:23.390Z,10.68
2022-11-06T16:14:52.932Z,10.57
2022-11-06T16:17:26.798Z,10.47
2022-11-06T16:19:59.968Z,10.42
2022-11-06T16:22:34.632Z,10.35
2022-11-06T16:25:06.531Z,10.36
2022-11-06T16:27:39.196Z,10.25
2022-11-06T16:30:25.306Z,10.13
2022-11-06T16:32:55.113Z,10.06
2022-11-06T16:35:35.950Z,10.00
2022-11-06T16:38:42.532Z,10.00
2022-11-06T16:41:34.706Z,10.04
2022-11-06T16:44:31.490Z,9.95
2022-11-06T16:47:18.041Z,9.92
2022-11-06T16:49:53.638Z,9.83
2022-11-06T16:52:28.682Z,9.83
2022-11-06T16:55:06.928Z,9.79
2022-11-06T16:57:44.394Z,9.78
2022-11-06T17:00:26.743Z,9.78
2022-11-06T17:03:00.023Z,9.77
2022-11-06T17:05:33.791Z,9.69
2022-11-06T17:08:22.822Z,9.64
2022-11-06T17:10:54.136Z,9.60
2022-11-06T17:13:27.474Z,9.58
2022-11-06T17:16:00.136Z,9.58
2022-11-06T17:18:31.789Z,9.57
2022-11-06T17:21:03.298Z,9.54
2022-11-06T17:23:34.762Z,9.56
2022-11-06T17:26:14.564Z,9.51
2022-11-06T17:28:43.834Z,9.51
2022-11-06T17:31:14.645Z,9.45
2022-11-06T17:33:44.396Z,9.42
2022-11-06T17:36:19.285Z,9.37
2022-11-06T17:38:49.621Z,9.20
2022-11-06T17:41:30.783Z,9.10
2022-11-06T17:44:02.187Z,8.88
2022-11-06T17:46:34.223Z,8.79
2022-11-06T17:49:04.464Z,8.68
2022-11-06T17:51:58.334Z,8.56
2022-11-06T17:54:32.311Z,8.42
2022-11-06T17:57:06.980Z,8.34
2022-11-06T17:59:36.983Z,8.26
2022-11-06T18:02:07.842Z,8.13
2022-11-06T18:04:39.760Z,8.03
2022-11-06T18:07:10.311Z,7.81
2022-11-06T18:09:39.535Z,7.72
2022-11-06T18:12:17.059Z,7.70
2022-11-06T18:14:46.109Z,7.51
2022-11-06T18:17:15.323Z,7.43
2022-11-06T18:19:44.900Z,7.27
2022-11-06T18:22:14.075Z,7.15
2022-11-06T18:24:43.588Z,7.24
2022-11-06T18:27:14.171Z,7.15
2022-11-06T18:29:43.248Z,7.05
2022-11-06T18:32:12.357Z,6.89
2022-11-06T18:34:41.612Z,6.77
2022-11-06T18:37:10.771Z,6.71
2022-11-06T18:39:40.866Z,6.68
2022-11-06T18:42:14.062Z,6.55
2022-11-06T18:44:43.351Z,6.40
2022-11-06T18:47:12.691Z,6.27
2022-11-06T18:49:41.981Z,6.14
2022-11-06T18:52:11.078Z,6.18
2022-11-06T18:54:40.898Z,6.22
2022-11-06T18:57:10.150Z,6.16
2022-11-06T18:59:41.925Z,6.04
2022-11-06T19:02:11.260Z,5.98
2022-11-06T19:04:40.546Z,5.86
2022-11-06T19:07:10.055Z,5.89
2022-11-06T19:09:41.155Z,5.72
2022-11-06T19:12:10.488Z,5.71
2022-11-06T19:14:41.288Z,5.57
2022-11-06T19:17:10.407Z,5.48
2022-11-06T19:19:39.513Z,5.50
2022-11-06T19:22:10.621Z,5.49
2022-11-06T19:24:40.171Z,5.46
2022-11-06T19:27:09.455Z,5.42
2022-11-06T19:29:38.739Z,5.24
2022-11-06T19:32:09.374Z,5.10
2022-11-06T19:34:39.465Z,5.11
2022-11-06T19:37:08.796Z,5.02
2022-11-06T19:39:38.395Z,5.12
2022-11-06T19:42:07.662Z,5.23
2022-11-06T19:44:37.071Z,5.28
2022-11-06T19:47:06.400Z,5.24
2022-11-06T19:49:37.050Z,5.21
2022-11-06T19:52:42.553Z,5.06
2022-11-06T19:55:25.984Z,5.18
2022-11-06T19:57:45.854Z,5.68
2022-11-06T20:00:16.407Z,5.57
2022-11-06T20:02:51.141Z,5.26
2022-11-06T20:05:21.861Z,5.01
2022-11-06T20:07:51.595Z,5.02
2022-11-06T20:10:21.107Z,5.00
2022-11-06T20:12:50.276Z,4.95
2022-11-06T20:15:23.761Z,4.77
2022-11-06T20:17:53.484Z,4.79
2022-11-06T20:20:24.354Z,4.82
2022-11-06T20:22:54.523Z,4.86
2022-11-06T20:25:24.217Z,4.76
2022-11-06T20:27:53.834Z,5.11
2022-11-06T20:30:23.280Z,5.59
2022-11-06T20:32:53.163Z,5.54
2022-11-06T20:35:23.763Z,5.61
2022-11-06T20:37:52.976Z,5.51
2022-11-06T20:40:22.293Z,5.37
2022-11-06T20:42:51.413Z,5.29
2022-11-06T20:45:23.560Z,5.10
2022-11-06T20:47:56.349Z,5.07
2022-11-06T20:50:27.173Z,5.06
2022-11-06T20:52:56.487Z,5.22
2022-11-06T20:55:25.709Z,5.21
2022-11-06T20:57:54.980Z,5.21
2022-11-06T21:00:24.178Z,5.25
2022-11-06T21:02:58.965Z,5.32
2022-11-06T21:05:32.027Z,5.42
2022-11-06T21:08:01.132Z,5.33
2022-11-06T21:10:30.368Z,5.24
2022-11-06T21:12:59.782Z,5.11
2022-11-06T21:15:29.363Z,5.00
2022-11-06T21:17:58.700Z,4.97
2022-11-06T21:20:27.818Z,4.88
2022-11-06T21:22:58.503Z,4.90
2022-11-06T21:25:27.696Z,4.95
2022-11-06T21:27:56.769Z,4.84
2022-11-06T21:30:26.408Z,4.92
2022-11-06T21:32:55.831Z,4.84
2022-11-06T21:35:25.087Z,4.86
2022-11-06T21:37:54.226Z,4.95
2022-11-06T21:40:25.364Z,5.04
2022-11-06T21:42:54.688Z,5.24
2022-11-06T21:45:26.192Z,5.23
2022-11-06T21:47:57.838Z,5.28
2022-11-06T21:50:29.935Z,5.34
2022-11-06T21:53:16.983Z,5.51
2022-11-06T21:56:02.870Z,5.40
2022-11-06T21:58:32.447Z,5.35
2022-11-06T22:01:04.742Z,5.40
2022-11-06T22:03:34.795Z,5.40
2022-11-06T22:06:08.932Z,5.44
2022-11-06T22:08:39.041Z,5.40
2022-11-06T22:11:15.112Z,5.44
2022-11-06T22:13:45.742Z,5.42
2022-11-06T22:16:18.090Z,5.40
2022-11-06T22:18:47.478Z,5.40
2022-11-06T22:21:19.259Z,5.40
2022-11-06T22:23:48.746Z,5.35
2022-11-06T22:26:22.161Z,5.22
2022-11-06T22:28:55.291Z,5.06
2022-11-06T22:31:24.894Z,4.97
2022-11-06T22:33:54.638Z,4.83
2022-11-06T22:36:24.574Z,4.65
2022-11-06T22:38:54.300Z,4.56
2022-11-06T22:41:26.087Z,4.51
2022-11-06T22:44:00.114Z,4.37
2022-11-06T22:46:30.135Z,4.25
2022-11-06T22:48:59.436Z,4.21
2022-11-06T22:51:30.484Z,4.06
2022-11-06T22:54:04.130Z,4.03
2022-11-06T22:56:34.944Z,4.06
2022-11-06T22:59:08.607Z,4.05
2022-11-06T23:01:42.318Z,4.00
2022-11-06T23:04:15.849Z,3.96
2022-11-06T23:06:46.418Z,3.91
2022-11-06T23:09:16.289Z,3.86
2022-11-06T23:11:48.047Z,3.62
2022-11-06T23:14:17.350Z,3.61
2022-11-06T23:17:00.887Z,3.50
2022-11-06T23:19:33.051Z,3.51
2022-11-06T23:22:19.406Z,3.62
2022-11-06T23:24:48.532Z,3.52
2022-11-06T23:27:20.693Z,3.48
2022-11-06T23:29:49.866Z,3.51
2022-11-06T23:32:18.930Z,3.42
2022-11-06T23:34:48.041Z,3.49
2022-11-06T23:37:17.162Z,3.48
2022-11-06T23:39:46.349Z,3.65
2022-11-06T23:42:15.856Z,3.82
2022-11-06T23:45:05.158Z,3.64
2022-11-06T23:47:34.996Z,3.64
2022-11-06T23:50:06.705Z,3.56
2022-11-06T23:52:36.022Z,3.61
2022-11-06T23:55:06.299Z,3.68
2022-11-06T23:57:35.634Z,3.55
